Time;durP1;ratioP1;P1;durP2;ratioP2;P2;SDS_P1;SDS_P2;PMS_P1;PMS_P2;Temp;Humidity;BMP_temperature;BMP_pressure;BME280_temperature;BME280_humidity;BME280_pressure;Samples;Min_cycle;Max_cycle;Signal;HPM_P1;HPM_P2
2022/08/06 00:00:21;;;;;;;277.02;175.88;;;11.80;99.10;;;;;;4975379;28;20102;-71
2022/08/06 00:02:48;;;;;;;279.77;173.55;;;11.80;99.20;;;;;;4972120;28;20059;-71
2022/08/06 00:05:15;;;;;;;256.55;163.32;;;11.80;99.10;;;;;;4970689;28;20061;-71
2022/08/06 00:07:43;;;;;;;274.13;175.20;;;11.80;99.10;;;;;;4971271;28;20071;-71
2022/08/06 00:10:10;;;;;;;278.88;176.50;;;11.80;99.10;;;;;;4972262;28;20052;-71
2022/08/06 00:12:37;;;;;;;261.70;168.50;;;11.80;99.00;;;;;;4972159;28;20054;-71
2022/08/06 00:15:06;;;;;;;240.27;154.75;;;11.80;99.00;;;;;;4970818;28;20047;-71
2022/08/06 00:17:33;;;;;;;245.13;156.25;;;11.70;99.30;;;;;;4971796;28;20047;-71
2022/08/06 00:20:01;;;;;;;243.00;154.57;;;11.70;99.30;;;;;;4986823;28;20205;-71
2022/08/06 00:22:28;;;;;;;261.88;167.38;;;11.70;99.20;;;;;;4970465;28;20053;-71
2022/08/06 00:24:57;;;;;;;231.00;149.93;;;11.70;99.00;;;;;;4970315;28;20066;-71
2022/08/06 00:27:24;;;;;;;256.58;165.15;;;11.60;99.20;;;;;;4970157;28;20058;-71
2022/08/06 00:29:51;;;;;;;263.42;167.68;;;11.60;99.10;;;;;;4970160;28;20453;-71
2022/08/06 00:32:18;;;;;;;262.98;167.90;;;11.60;99.00;;;;;;4970052;28;20051;-71
2022/08/06 00:34:45;;;;;;;268.90;170.55;;;11.50;98.90;;;;;;4969990;28;20066;-71
2022/08/06 00:37:12;;;;;;;254.77;161.98;;;11.50;99.30;;;;;;4970383;28;20916;-71
2022/08/06 00:39:39;;;;;;;244.45;153.90;;;11.40;99.40;;;;;;4971640;28;20154;-71
2022/08/06 00:42:08;;;;;;;235.80;150.15;;;11.40;99.50;;;;;;4986098;28;20058;-71
2022/08/06 00:44:35;;;;;;;244.73;150.73;;;11.40;99.70;;;;;;4971639;28;20134;-71
2022/08/06 00:47:02;;;;;;;243.35;152.98;;;11.50;99.90;;;;;;4969897;28;20051;-71
2022/08/06 00:49:29;;;;;;;238.68;149.93;;;11.50;99.80;;;;;;4971509;28;20056;-71
2022/08/06 00:51:56;;;;;;;229.57;145.05;;;11.50;99.80;;;;;;4970322;28;20054;-71
2022/08/06 00:54:23;;;;;;;220.75;142.88;;;11.50;99.80;;;;;;4970346;28;20047;-71
2022/08/06 00:56:50;;;;;;;224.05;145.43;;;11.60;99.90;;;;;;4969849;28;20111;-71
2022/08/06 00:59:19;;;;;;;234.52;148.52;;;11.60;99.80;;;;;;4970355;28;20487;-71
2022/08/06 01:01:45;;;;;;;230.40;146.88;;;11.50;99.70;;;;;;4969991;28;20051;-71
2022/08/06 01:04:12;;;;;;;232.18;145.02;;;11.50;99.80;;;;;;4969902;28;20456;-71
2022/08/06 01:06:39;;;;;;;228.90;145.95;;;11.50;99.80;;;;;;4965187;28;20095;-71
2022/08/06 01:09:06;;;;;;;227.18;144.45;;;11.30;99.70;;;;;;4951369;28;20060;-71
2022/08/06 01:11:33;;;;;;;220.70;141.82;;;11.30;99.60;;;;;;4966635;28;20099;-71
2022/08/06 01:14:00;;;;;;;218.05;140.98;;;11.30;99.70;;;;;;4966562;28;20043;-71
2022/08/06 01:16:36;;;;;;;223.20;140.40;;;11.20;99.80;;;;;;4951883;28;20531;-71
2022/08/06 01:19:23;;;;;;;229.52;143.57;;;11.20;99.70;;;;;;4952295;28;20509;-71
2022/08/06 01:21:57;;;;;;;234.95;142.90;;;11.10;99.60;;;;;;4954508;28;20481;-72
2022/08/06 01:24:44;;;;;;;225.50;141.85;;;11.00;99.60;;;;;;4970183;28;20062;-71
2022/08/06 01:27:43;;;;;;;221.23;142.00;;;11.00;99.70;;;;;;4969719;28;20087;-71
2022/08/06 01:30:15;;;;;;;221.73;140.25;;;10.90;99.90;;;;;;4969889;28;20055;-71
2022/08/06 01:32:49;;;;;;;222.30;140.90;;;10.90;99.90;;;;;;4969927;28;20051;-71
2022/08/06 01:35:21;;;;;;;234.15;145.45;;;10.90;99.90;;;;;;4955094;28;20050;-72
2022/08/06 01:37:57;;;;;;;222.88;140.77;;;11.00;99.90;;;;;;4954923;28;20067;-71
2022/08/06 01:40:28;;;;;;;219.38;140.60;;;11.00;99.90;;;;;;4968246;28;20079;-71
2022/08/06 01:42:58;;;;;;;219.25;141.13;;;11.00;99.90;;;;;;4954868;28;20056;-71
2022/08/06 01:45:29;;;;;;;226.52;142.00;;;10.90;99.90;;;;;;4969635;28;20055;-71
2022/08/06 01:47:59;;;;;;;221.60;140.43;;;10.90;99.90;;;;;;4969194;28;20047;-71
2022/08/06 01:50:30;;;;;;;218.68;141.93;;;10.90;99.90;;;;;;4969562;28;20059;-71
2022/08/06 01:52:59;;;;;;;221.25;141.90;;;10.90;99.90;;;;;;4969268;28;20048;-71
2022/08/06 01:55:29;;;;;;;217.18;140.70;;;10.80;99.90;;;;;;4954743;28;20513;-71
2022/08/06 01:58:00;;;;;;;222.75;141.30;;;10.80;99.90;;;;;;4969176;28;20060;-71
2022/08/06 02:00:27;;;;;;;216.60;139.10;;;10.80;99.90;;;;;;4954453;28;20162;-71
2022/08/06 02:02:56;;;;;;;217.68;139.98;;;10.70;99.90;;;;;;4969076;28;20058;-71
2022/08/06 02:05:25;;;;;;;217.15;140.52;;;10.70;99.90;;;;;;4969223;28;20079;-71
2022/08/06 02:07:57;;;;;;;216.32;139.40;;;10.60;99.90;;;;;;4969124;28;20044;-71
2022/08/06 02:10:26;;;;;;;215.57;138.50;;;10.50;99.90;;;;;;4969295;28;20051;-71
2022/08/06 02:12:53;;;;;;;221.15;141.68;;;10.50;99.90;;;;;;4980337;28;20047;-71
2022/08/06 02:15:26;;;;;;;219.10;141.20;;;10.40;99.90;;;;;;4972798;28;20054;-71
2022/08/06 02:17:57;;;;;;;218.40;139.77;;;10.30;99.90;;;;;;4972277;28;20142;-71
2022/08/06 02:20:27;;;;;;;217.57;140.07;;;10.30;99.90;;;;;;4972266;28;20041;-71
2022/08/06 02:22:55;;;;;;;214.27;139.05;;;10.30;99.90;;;;;;4973858;28;20075;-71
2022/08/06 02:25:23;;;;;;;215.13;138.93;;;10.30;99.90;;;;;;4972218;28;20595;-71
2022/08/06 02:27:57;;;;;;;217.65;139.30;;;10.30;99.90;;;;;;4972085;28;20054;-71
2022/08/06 02:30:29;;;;;;;216.63;139.43;;;10.20;99.90;;;;;;4972197;28;20472;-71
2022/08/06 02:32:56;;;;;;;222.85;141.73;;;10.10;99.90;;;;;;4972259;28;20051;-71
2022/08/06 02:35:23;;;;;;;223.60;140.27;;;10.10;99.90;;;;;;4973480;28;20114;-71
2022/08/06 02:37:58;;;;;;;235.50;144.70;;;10.10;99.90;;;;;;4973101;28;20134;-71
2022/08/06 02:40:31;;;;;;;219.48;138.18;;;10.00;99.70;;;;;;4973140;28;20051;-71
2022/08/06 02:43:05;;;;;;;227.23;139.68;;;9.80;99.80;;;;;;4971952;28;20892;-71
2022/08/06 02:45:39;;;;;;;221.93;138.32;;;9.70;99.90;;;;;;4967193;28;20047;-71
2022/08/06 02:48:13;;;;;;;210.70;134.20;;;9.70;99.90;;;;;;4968330;28;20051;-71
2022/08/06 02:50:43;;;;;;;218.30;137.10;;;9.60;99.90;;;;;;4968570;28;20051;-71
2022/08/06 02:53:14;;;;;;;215.77;135.93;;;9.60;99.90;;;;;;4954187;28;20412;-71
2022/08/06 02:55:45;;;;;;;215.82;135.63;;;9.60;99.90;;;;;;4968524;28;20056;-71
2022/08/06 02:58:18;;;;;;;214.75;135.20;;;9.60;99.90;;;;;;4968321;28;20050;-71
2022/08/06 03:00:49;;;;;;;215.85;135.90;;;9.60;99.90;;;;;;4953909;28;20062;-71
2022/08/06 03:03:17;;;;;;;214.88;136.48;;;9.60;99.90;;;;;;4968520;28;20047;-71
2022/08/06 03:05:45;;;;;;;251.05;141.05;;;9.60;99.90;;;;;;4953682;28;20063;-71
2022/08/06 03:08:18;;;;;;;214.35;136.38;;;9.60;99.90;;;;;;4968202;28;20044;-71
2022/08/06 03:10:47;;;;;;;220.10;137.40;;;9.60;99.90;;;;;;4968694;28;20050;-71
2022/08/06 03:13:15;;;;;;;218.25;136.13;;;9.50;99.90;;;;;;4953310;28;20130;-71
2022/08/06 03:15:43;;;;;;;223.38;138.13;;;9.50;99.90;;;;;;4968278;28;20052;-71
2022/08/06 03:18:15;;;;;;;211.20;133.73;;;9.40;99.90;;;;;;4955757;28;20057;-71
2022/08/06 03:20:42;;;;;;;210.23;133.05;;;9.40;99.90;;;;;;4971227;28;20049;-71
2022/08/06 03:23:42;;;;;;;210.25;130.50;;;9.40;99.90;;;;;;4973759;28;20043;-71
2022/08/06 03:26:10;;;;;;;321.77;139.23;;;9.40;99.90;;;;;;4911528;29;20055;-71
2022/08/06 03:28:41;;;;;;;427.45;141.70;;;9.40;99.90;;;;;;4913500;29;20088;-71
2022/08/06 03:31:09;;;;;;;213.85;133.50;;;9.30;99.90;;;;;;4913571;29;20137;-71
2022/08/06 03:33:38;;;;;;;217.68;136.20;;;9.30;99.90;;;;;;4914918;29;20165;-71
2022/08/06 03:36:06;;;;;;;226.45;136.50;;;9.30;99.90;;;;;;4914796;29;20052;-71
2022/08/06 03:38:39;;;;;;;209.68;132.93;;;9.30;99.90;;;;;;4913070;29;20511;-71
2022/08/06 03:41:08;;;;;;;212.13;133.15;;;9.30;99.90;;;;;;4914869;29;20061;-71
2022/08/06 03:43:35;;;;;;;210.30;132.32;;;9.20;99.90;;;;;;4912862;29;20183;-71
2022/08/06 03:46:04;;;;;;;208.77;132.70;;;9.20;99.90;;;;;;4913210;29;20055;-71
2022/08/06 03:48:35;;;;;;;223.20;137.05;;;9.20;99.90;;;;;;4913016;29;20063;-71
2022/08/06 03:51:05;;;;;;;216.05;134.25;;;9.20;99.90;;;;;;4913275;29;20195;-71
2022/08/06 03:53:35;;;;;;;214.45;132.98;;;9.10;99.90;;;;;;4913445;29;20160;-71
2022/08/06 03:56:04;;;;;;;204.40;129.93;;;9.10;99.90;;;;;;4913269;29;20056;-71
2022/08/06 03:58:33;;;;;;;211.35;132.77;;;9.00;99.90;;;;;;4914371;29;20060;-71
2022/08/06 04:01:04;;;;;;;211.77;131.40;;;9.00;99.90;;;;;;4912992;29;20051;-71
2022/08/06 04:03:33;;;;;;;217.23;131.23;;;9.00;99.90;;;;;;4913210;29;20135;-71
2022/08/06 04:06:00;;;;;;;210.35;131.50;;;9.00;99.90;;;;;;4914316;29;20052;-71
2022/08/06 04:08:29;;;;;;;222.70;132.30;;;8.90;99.90;;;;;;4912720;29;20056;-71
2022/08/06 04:10:57;;;;;;;223.60;134.25;;;8.90;99.90;;;;;;4913113;29;20213;-71
2022/08/06 04:13:26;;;;;;;206.57;130.60;;;8.90;99.90;;;;;;4914070;29;20056;-71
2022/08/06 04:15:55;;;;;;;361.63;134.30;;;8.90;99.90;;;;;;4912992;29;20047;-71
2022/08/06 04:18:25;;;;;;;216.18;132.77;;;8.90;99.90;;;;;;4912689;29;20511;-71
2022/08/06 04:20:55;;;;;;;498.05;138.75;;;8.90;99.90;;;;;;4914195;29;20131;-71
2022/08/06 04:23:22;;;;;;;680.90;143.55;;;8.90;99.90;;;;;;4914280;29;20063;-71
2022/08/06 04:25:54;;;;;;;217.48;130.70;;;8.90;99.90;;;;;;4912723;29;20064;-71
2022/08/06 04:28:22;;;;;;;205.63;130.50;;;8.90;99.90;;;;;;4914033;29;20049;-71
2022/08/06 04:30:50;;;;;;;202.60;129.25;;;9.00;99.90;;;;;;4928763;29;20124;-71
2022/08/06 04:33:20;;;;;;;205.50;129.10;;;9.00;99.90;;;;;;4928645;29;20136;-71
2022/08/06 04:35:48;;;;;;;205.00;129.52;;;9.00;99.90;;;;;;4914201;29;20053;-71
2022/08/06 04:38:17;;;;;;;207.57;130.60;;;9.00;99.90;;;;;;4919402;29;20056;-71
2022/08/06 04:40:44;;;;;;;204.82;129.38;;;9.00;99.90;;;;;;4917840;29;20709;-71
2022/08/06 04:43:14;;;;;;;200.80;128.27;;;9.10;99.90;;;;;;4913811;29;20063;-71
2022/08/06 04:45:45;;;;;;;201.90;128.77;;;9.10;99.90;;;;;;4920406;29;20527;-71
2022/08/06 04:48:12;;;;;;;198.90;128.00;;;9.10;99.90;;;;;;4928413;29;20151;-71
2022/08/06 04:50:40;;;;;;;205.88;129.48;;;9.10;99.90;;;;;;4928763;29;20044;-71
2022/08/06 04:53:08;;;;;;;282.13;131.07;;;9.20;99.90;;;;;;4912597;29;20083;-71
2022/08/06 04:55:36;;;;;;;218.68;130.90;;;9.20;99.90;;;;;;4927019;29;20045;-72
2022/08/06 04:58:05;;;;;;;207.20;131.60;;;9.30;99.90;;;;;;4920838;29;20161;-71
2022/08/06 05:00:36;;;;;;;201.02;130.77;;;9.30;99.90;;;;;;4922183;28;20605;-72
2022/08/06 05:03:04;;;;;;;200.60;130.50;;;9.30;99.90;;;;;;4906601;29;20096;-71
2022/08/06 05:05:39;;;;;;;205.57;133.43;;;9.40;99.90;;;;;;4905606;29;20067;-71
2022/08/06 05:08:09;;;;;;;203.48;131.23;;;9.50;99.90;;;;;;4918639;29;20080;-71
2022/08/06 05:10:42;;;;;;;201.18;130.52;;;9.60;99.90;;;;;;4920341;29;20053;-71
2022/08/06 05:13:12;;;;;;;208.77;134.27;;;9.70;99.90;;;;;;4914887;29;20158;-71
2022/08/06 05:15:44;;;;;;;246.93;145.07;;;9.90;99.90;;;;;;4915163;29;20112;-72
2022/08/06 05:18:14;;;;;;;234.70;141.90;;;10.00;99.90;;;;;;4912906;29;20534;-72
2022/08/06 05:20:43;;;;;;;236.55;142.48;;;10.20;99.90;;;;;;4931373;29;20084;-71
2022/08/06 05:23:13;;;;;;;229.18;141.18;;;10.30;99.90;;;;;;4912845;29;20494;-71
2022/08/06 05:25:40;;;;;;;225.95;141.43;;;10.40;99.90;;;;;;4916014;29;20045;-72
2022/08/06 05:28:08;;;;;;;222.73;139.68;;;10.50;99.90;;;;;;4916608;29;20175;-72
2022/08/06 05:30:41;;;;;;;229.75;142.43;;;10.70;99.90;;;;;;4931378;29;20136;-71
2022/08/06 05:33:10;;;;;;;218.27;138.82;;;10.80;99.90;;;;;;4915314;29;20499;-72
2022/08/06 05:35:37;;;;;;;218.20;138.50;;;10.90;99.90;;;;;;4915406;29;20515;-72
2022/08/06 05:38:04;;;;;;;229.80;143.98;;;11.00;99.90;;;;;;4915947;29;20053;-72
2022/08/06 05:40:34;;;;;;;223.90;142.68;;;11.00;99.90;;;;;;4916093;29;20052;-72
2022/08/06 05:43:01;;;;;;;225.25;143.68;;;11.20;99.90;;;;;;4914976;29;20144;-72
2022/08/06 05:45:28;;;;;;;224.88;142.63;;;11.30;99.90;;;;;;4913370;29;20819;-72
2022/08/06 05:47:58;;;;;;;227.77;145.30;;;11.30;99.90;;;;;;4920925;29;20090;-72
2022/08/06 05:50:34;;;;;;;226.73;145.45;;;11.50;99.90;;;;;;4905486;29;20046;-72
2022/08/06 05:53:05;;;;;;;227.57;145.95;;;11.60;99.90;;;;;;4912423;29;20124;-72
2022/08/06 05:55:39;;;;;;;221.57;144.95;;;11.70;99.90;;;;;;4915177;29;20147;-72
2022/08/06 05:58:12;;;;;;;218.02;144.80;;;11.90;99.90;;;;;;4930529;29;20052;-72
2022/08/06 06:00:40;;;;;;;213.55;142.35;;;12.10;99.90;;;;;;4915526;29;20497;-71
2022/08/06 06:03:12;;;;;;;212.75;141.20;;;12.30;99.90;;;;;;4915005;29;20531;-72
2022/08/06 06:05:41;;;;;;;220.55;145.32;;;12.50;99.90;;;;;;4929465;29;20056;-71
2022/08/06 06:08:08;;;;;;;217.25;145.50;;;12.70;99.90;;;;;;4918999;29;20100;-72
2022/08/06 06:10:36;;;;;;;213.07;148.02;;;12.90;99.90;;;;;;4913470;29;20067;-72
2022/08/06 06:13:04;;;;;;;214.43;147.07;;;13.10;99.90;;;;;;4913725;29;20432;-72
2022/08/06 06:15:34;;;;;;;217.20;149.57;;;13.40;99.90;;;;;;4836567;29;23140;-72
2022/08/06 06:18:08;;;;;;;216.50;149.45;;;13.50;99.90;;;;;;4912272;29;20079;-72
2022/08/06 06:20:46;;;;;;;212.63;146.90;;;13.70;99.90;;;;;;4911253;29;20072;-72
2022/08/06 06:23:19;;;;;;;211.23;146.70;;;13.80;99.80;;;;;;4845958;29;20060;-72
2022/08/06 06:25:53;;;;;;;212.50;148.65;;;13.90;99.70;;;;;;4913418;29;20116;-72
2022/08/06 06:28:27;;;;;;;248.70;170.03;;;14.00;99.40;;;;;;4919838;29;20081;-72
2022/08/06 06:30:59;;;;;;;248.02;172.95;;;14.10;99.50;;;;;;4915108;29;20293;-72
2022/08/06 06:33:30;;;;;;;241.10;168.95;;;14.20;99.30;;;;;;4920888;29;20052;-72
2022/08/06 06:36:02;;;;;;;261.65;183.32;;;14.30;99.30;;;;;;4906426;29;20057;-72
2022/08/06 06:38:41;;;;;;;237.55;166.95;;;14.40;99.40;;;;;;4913226;29;20048;-72
2022/08/06 06:41:14;;;;;;;267.88;189.00;;;14.50;99.00;;;;;;4912610;29;20128;-72
2022/08/06 06:43:46;;;;;;;222.25;160.60;;;14.60;99.20;;;;;;4921346;29;20058;-72
2022/08/06 06:46:21;;;;;;;244.55;176.82;;;14.80;99.30;;;;;;4905944;29;20079;-72
2022/08/06 06:48:51;;;;;;;215.70;156.55;;;14.90;99.20;;;;;;4913888;29;20534;-72
2022/08/06 06:51:25;;;;;;;236.02;171.77;;;15.00;98.80;;;;;;4921575;29;20136;-72
2022/08/06 06:53:54;;;;;;;215.65;157.68;;;15.00;98.90;;;;;;4912155;29;20156;-72
2022/08/06 06:56:25;;;;;;;223.60;165.13;;;15.10;98.80;;;;;;4914676;29;20060;-72
2022/08/06 06:58:56;;;;;;;223.10;164.02;;;15.20;98.60;;;;;;4914092;29;20167;-72
2022/08/06 07:01:25;;;;;;;227.95;167.07;;;15.20;98.80;;;;;;4896449;29;20052;-71
2022/08/06 07:03:54;;;;;;;213.77;159.90;;;15.30;98.40;;;;;;4912603;29;20567;-71
2022/08/06 07:06:24;;;;;;;223.55;167.32;;;15.40;98.20;;;;;;4927772;29;20060;-71
2022/08/06 07:08:51;;;;;;;211.13;160.35;;;15.50;98.40;;;;;;4912620;29;20503;-71
2022/08/06 07:11:21;;;;;;;207.38;156.05;;;15.70;98.10;;;;;;4912732;29;20063;-71
2022/08/06 07:13:50;;;;;;;210.95;163.15;;;15.80;97.80;;;;;;4910674;29;20055;-72
2022/08/06 07:16:19;;;;;;;209.52;159.63;;;15.90;97.80;;;;;;4911671;29;20969;-72
2022/08/06 07:18:47;;;;;;;202.45;155.32;;;16.00;97.40;;;;;;4925388;29;20056;-71
2022/08/06 07:21:17;;;;;;;203.73;154.45;;;16.10;97.80;;;;;;4929653;29;20053;-71
2022/08/06 07:23:50;;;;;;;203.20;154.63;;;16.20;97.20;;;;;;4913552;29;20052;-72
2022/08/06 07:26:19;;;;;;;206.68;158.52;;;16.30;96.90;;;;;;4929342;29;20065;-71
2022/08/06 07:28:47;;;;;;;198.80;154.13;;;16.40;96.60;;;;;;4926930;29;20104;-71
2022/08/06 07:31:15;;;;;;;199.65;156.18;;;16.40;96.30;;;;;;4912595;29;20048;-71
2022/08/06 07:33:45;;;;;;;216.30;164.68;;;16.50;96.40;;;;;;4921181;29;20526;-71
2022/08/06 07:36:16;;;;;;;201.70;157.90;;;16.60;95.80;;;;;;4927997;29;20045;-71
2022/08/06 07:38:45;;;;;;;203.18;161.60;;;16.80;94.60;;;;;;4913931;29;20194;-71
2022/08/06 07:41:14;;;;;;;207.32;164.27;;;16.90;94.20;;;;;;4927293;29;20056;-71
2022/08/06 07:43:47;;;;;;;211.23;167.30;;;17.00;94.50;;;;;;4919748;29;20051;-72
2022/08/06 07:46:17;;;;;;;210.85;169.18;;;17.10;93.90;;;;;;4865766;28;20056;-71
2022/08/06 07:48:48;;;;;;;198.90;162.63;;;17.10;93.90;;;;;;4824059;29;20056;-71
2022/08/06 07:51:16;;;;;;;199.05;162.27;;;17.20;92.90;;;;;;4899754;29;20276;-71
2022/08/06 07:53:45;;;;;;;195.05;157.45;;;17.30;92.80;;;;;;4860614;29;20056;-71
2022/08/06 07:56:14;;;;;;;192.55;156.07;;;17.40;92.40;;;;;;4912429;29;20056;-71
2022/08/06 07:58:43;;;;;;;192.27;157.43;;;17.50;92.80;;;;;;4914169;29;20507;-71
2022/08/06 08:01:10;;;;;;;200.32;160.98;;;17.60;93.10;;;;;;4914001;29;20087;-72
2022/08/06 08:06:24;;;;;;;280.85;226.55;;;17.60;93.50;;;;;;4912512;29;20052;-71
2022/08/06 08:08:54;;;;;;;273.27;224.52;;;17.70;93.80;;;;;;4914005;29;20053;-71
2022/08/06 08:11:24;;;;;;;311.65;264.27;;;17.90;92.80;;;;;;4929004;29;20049;-71
2022/08/06 08:13:54;;;;;;;281.13;235.98;;;18.00;93.80;;;;;;4912847;29;20048;-71
2022/08/06 08:16:21;;;;;;;310.70;266.55;;;18.30;94.00;;;;;;4913904;29;20076;-72
2022/08/06 08:18:49;;;;;;;317.55;276.88;;;18.40;92.60;;;;;;4912372;29;20057;-72
2022/08/06 08:21:17;;;;;;;316.20;277.58;;;18.40;91.90;;;;;;4914130;29;20084;-72
2022/08/06 08:23:46;;;;;;;277.10;235.43;;;18.50;90.70;;;;;;4911330;29;20052;-72
2022/08/06 08:26:13;;;;;;;319.30;277.90;;;18.50;90.30;;;;;;4928834;29;20064;-72
2022/08/06 08:28:41;;;;;;;303.63;253.98;;;18.40;88.30;;;;;;4912801;29;20061;-72
2022/08/06 08:31:11;;;;;;;318.52;275.60;;;18.20;86.30;;;;;;4932428;29;20080;-72
2022/08/06 08:33:39;;;;;;;321.88;278.73;;;18.10;87.20;;;;;;4864777;28;20049;-72
2022/08/06 08:36:06;;;;;;;362.13;321.17;;;18.00;87.80;;;;;;4915213;29;20063;-72
2022/08/06 08:38:35;;;;;;;322.42;278.42;;;18.10;89.10;;;;;;4915138;29;20139;-72
2022/08/06 08:41:05;;;;;;;332.52;289.45;;;18.10;87.70;;;;;;4916907;29;20060;-72
2022/08/06 08:43:41;;;;;;;270.70;228.10;;;18.30;86.40;;;;;;4916384;29;20057;-72
2022/08/06 08:46:11;;;;;;;326.75;284.25;;;18.50;86.50;;;;;;4916545;29;20090;-72
2022/08/06 08:48:39;;;;;;;309.05;265.77;;;18.50;81.80;;;;;;4915172;29;20085;-72
2022/08/06 08:51:09;;;;;;;298.25;254.75;;;18.50;84.80;;;;;;4916851;29;20117;-72
2022/08/06 08:53:40;;;;;;;305.17;263.17;;;18.50;86.10;;;;;;4913071;29;20052;-72
2022/08/06 08:56:08;;;;;;;290.27;246.02;;;18.50;83.00;;;;;;4915502;29;20172;-72
2022/08/06 08:58:36;;;;;;;279.23;236.30;;;18.50;81.10;;;;;;4915452;29;20045;-72
2022/08/06 09:01:08;;;;;;;294.70;252.57;;;18.40;81.10;;;;;;4914863;29;20108;-72
2022/08/06 09:03:39;;;;;;;267.00;225.02;;;18.40;81.30;;;;;;4931060;29;20053;-72
2022/08/06 09:06:06;;;;;;;266.52;230.02;;;18.50;82.90;;;;;;4983659;22;20055;-72
2022/08/06 09:08:35;;;;;;;263.15;226.75;;;18.70;85.50;;;;;;4962801;28;20501;-72
2022/08/06 09:11:02;;;;;;;268.35;232.95;;;18.90;83.10;;;;;;4989036;28;20115;-72
2022/08/06 09:13:30;;;;;;;263.00;225.90;;;19.00;80.60;;;;;;4972665;28;20103;-72
2022/08/06 09:15:58;;;;;;;255.80;220.10;;;19.10;79.90;;;;;;4972438;28;20056;-72
2022/08/06 09:18:26;;;;;;;267.08;231.52;;;19.00;81.10;;;;;;4973898;28;20138;-72
2022/08/06 09:20:55;;;;;;;264.33;231.90;;;19.00;81.90;;;;;;4988921;28;20573;-72
2022/08/06 09:23:22;;;;;;;268.10;237.27;;;19.20;80.40;;;;;;4988865;28;20143;-72
2022/08/06 09:25:50;;;;;;;262.42;233.52;;;19.40;78.70;;;;;;4972868;28;20052;-72
2022/08/06 09:28:35;;;;;;;234.93;208.85;;;19.60;81.60;;;;;;4970072;28;20051;-72
2022/08/06 09:31:05;;;;;;;237.15;210.75;;;19.80;80.40;;;;;;4959426;28;20062;-72
2022/08/06 09:33:33;;;;;;;240.27;213.93;;;20.00;74.80;;;;;;4960532;28;20078;-72
2022/08/06 09:36:04;;;;;;;287.20;255.98;;;20.00;72.80;;;;;;4954454;28;20040;-72
2022/08/06 09:38:32;;;;;;;275.17;244.77;;;19.70;72.10;;;;;;4937181;28;20048;-72
2022/08/06 09:41:08;;;;;;;271.40;241.50;;;19.60;76.90;;;;;;4953669;28;20134;-73
2022/08/06 09:43:35;;;;;;;297.85;265.70;;;19.70;72.60;;;;;;4954487;28;20142;-72
2022/08/06 09:46:03;;;;;;;303.13;269.98;;;19.80;67.80;;;;;;4954516;28;20047;-71
2022/08/06 09:48:29;;;;;;;290.27;258.45;;;19.80;65.10;;;;;;4954365;28;20052;-72
2022/08/06 09:50:56;;;;;;;294.10;262.10;;;19.80;68.90;;;;;;4953824;28;20835;-72
2022/08/06 09:53:25;;;;;;;295.10;263.20;;;19.90;70.80;;;;;;4953984;28;20060;-72
2022/08/06 09:55:54;;;;;;;258.75;230.23;;;20.00;69.20;;;;;;4952918;28;20748;-72
2022/08/06 09:58:29;;;;;;;275.02;245.07;;;20.10;69.80;;;;;;4953388;28;20059;-72
2022/08/06 10:00:57;;;;;;;290.40;258.85;;;20.20;71.00;;;;;;4954017;28;20087;-72
2022/08/06 10:03:24;;;;;;;263.40;235.35;;;20.40;70.50;;;;;;4952313;28;20050;-72
2022/08/06 10:06:05;;;;;;;309.55;277.50;;;20.60;69.30;;;;;;4951750;28;20141;-72
2022/08/06 10:08:33;;;;;;;282.60;252.77;;;20.80;70.00;;;;;;4984252;28;20059;-72
2022/08/06 10:11:02;;;;;;;375.48;338.20;;;20.80;70.30;;;;;;4953203;28;20056;-72
2022/08/06 10:13:31;;;;;;;368.65;331.73;;;20.80;69.30;;;;;;4968826;28;20083;-72
2022/08/06 10:16:00;;;;;;;390.40;351.63;;;20.80;66.30;;;;;;4968728;28;20055;-72
2022/08/06 10:18:35;;;;;;;439.02;397.33;;;20.70;68.90;;;;;;4973379;28;20696;-72
2022/08/06 10:21:05;;;;;;;446.50;404.27;;;20.90;66.20;;;;;;4952195;28;20072;-72
2022/08/06 10:23:36;;;;;;;417.00;376.95;;;20.90;65.60;;;;;;4952741;28;20134;-72
2022/08/06 10:26:05;;;;;;;431.23;390.27;;;20.90;66.40;;;;;;4984224;28;20087;-72
2022/08/06 10:28:34;;;;;;;400.02;360.52;;;20.90;66.30;;;;;;4951848;28;20083;-72
2022/08/06 10:31:04;;;;;;;388.85;350.20;;;20.90;65.10;;;;;;4953541;28;20498;-72
2022/08/06 10:33:34;;;;;;;368.42;331.13;;;20.90;63.40;;;;;;4957236;28;20051;-72
2022/08/06 10:36:05;;;;;;;352.23;316.10;;;20.60;63.50;;;;;;4952327;28;20095;-72
2022/08/06 10:38:38;;;;;;;368.60;331.25;;;20.40;67.40;;;;;;4951876;28;20960;-72
2022/08/06 10:41:08;;;;;;;336.38;301.48;;;20.30;66.80;;;;;;4968446;28;20108;-72
2022/08/06 10:43:37;;;;;;;343.80;307.98;;;20.20;68.00;;;;;;4967571;28;20054;-72
2022/08/06 10:46:06;;;;;;;369.23;331.38;;;20.00;67.20;;;;;;4953099;28;20066;-72
2022/08/06 10:48:34;;;;;;;337.33;302.05;;;20.00;67.40;;;;;;4967407;28;20066;-72
2022/08/06 10:51:02;;;;;;;344.63;308.75;;;20.00;68.00;;;;;;4955678;28;20063;-72
2022/08/06 10:53:31;;;;;;;325.23;291.15;;;20.10;69.20;;;;;;4961607;28;20055;-72
2022/08/06 10:56:03;;;;;;;360.42;323.90;;;20.10;70.40;;;;;;4969743;28;20087;-72
2022/08/06 10:58:31;;;;;;;362.85;326.33;;;20.20;69.00;;;;;;4951676;28;20074;-72
2022/08/06 11:01:00;;;;;;;333.38;299.23;;;20.30;68.80;;;;;;4950124;28;20062;-72
2022/08/06 11:03:39;;;;;;;334.05;300.25;;;20.70;68.90;;;;;;4951774;28;20073;-72
2022/08/06 11:06:22;;;;;;;355.35;319.90;;;21.00;67.10;;;;;;4950550;28;20064;-72
2022/08/06 11:09:06;;;;;;;351.27;316.05;;;21.00;65.50;;;;;;4949893;28;20130;-72
2022/08/06 11:12:07;;;;;;;311.92;279.45;;;20.80;64.30;;;;;;4982614;28;20395;-72
2022/08/06 11:14:37;;;;;;;353.60;317.60;;;20.50;64.30;;;;;;4952034;28;20059;-72
2022/08/06 11:17:05;;;;;;;387.60;348.95;;;20.30;63.00;;;;;;4951958;28;20150;-72
2022/08/06 11:19:40;;;;;;;455.33;411.90;;;20.10;64.30;;;;;;4968265;28;20599;-72
2022/08/06 11:22:07;;;;;;;395.48;356.20;;;20.10;64.20;;;;;;4954906;28;20625;-72
2022/08/06 11:24:49;;;;;;;477.65;432.80;;;20.00;64.20;;;;;;4968566;28;20054;-72
2022/08/06 11:27:52;;;;;;;398.63;358.63;;;20.00;63.90;;;;;;4960692;28;20134;-72
2022/08/06 11:30:19;;;;;;;360.67;323.65;;;20.10;64.30;;;;;;4950438;28;20513;-72
2022/08/06 11:32:48;;;;;;;377.45;339.58;;;20.20;65.00;;;;;;4903076;28;20720;-72
2022/08/06 11:35:41;;;;;;;339.83;305.48;;;20.50;66.70;;;;;;4974329;28;20047;-72
2022/08/06 11:38:13;;;;;;;365.58;328.98;;;21.10;65.50;;;;;;5002954;28;20441;-72
2022/08/06 11:41:00;;;;;;;345.67;310.83;;;21.30;63.00;;;;;;5012099;28;20108;-72
2022/08/06 11:43:48;;;;;;;352.98;317.52;;;21.20;61.00;;;;;;5002828;28;20055;-72
2022/08/06 11:46:21;;;;;;;342.98;308.17;;;21.10;63.60;;;;;;4992620;28;21683;-72
2022/08/06 11:49:18;;;;;;;319.70;286.85;;;20.90;61.00;;;;;;5002892;28;20130;-72
2022/08/06 11:51:47;;;;;;;331.48;297.27;;;20.70;61.90;;;;;;4973550;28;20063;-72
2022/08/06 11:54:16;;;;;;;385.13;347.00;;;20.60;62.80;;;;;;4971181;28;20146;-72
2022/08/06 11:57:24;;;;;;;395.50;356.70;;;20.50;64.20;;;;;;4971357;28;20059;-72
2022/08/06 12:00:18;;;;;;;414.38;373.63;;;20.50;64.80;;;;;;4986216;28;20144;-72
2022/08/06 12:02:58;;;;;;;404.10;363.90;;;20.50;66.90;;;;;;4955885;28;20057;-72
2022/08/06 12:05:42;;;;;;;379.52;341.70;;;20.50;65.50;;;;;;4970601;28;20063;-72
2022/08/06 12:08:26;;;;;;;430.02;387.92;;;20.50;65.10;;;;;;4984777;28;20909;-72
2022/08/06 12:11:27;;;;;;;426.67;385.13;;;20.50;64.70;;;;;;4970413;28;20075;-72
2022/08/06 12:13:55;;;;;;;397.13;357.65;;;20.50;65.70;;;;;;4970103;28;20051;-72
2022/08/06 12:16:31;;;;;;;386.60;348.40;;;20.70;63.30;;;;;;5001588;28;20150;-72
2022/08/06 12:18:59;;;;;;;387.05;349.20;;;20.80;65.70;;;;;;5001096;28;20139;-72
2022/08/06 12:21:26;;;;;;;417.98;377.75;;;20.90;65.00;;;;;;4971587;28;20047;-72
2022/08/06 12:23:53;;;;;;;404.92;366.00;;;21.20;66.70;;;;;;4971713;28;20580;-72
2022/08/06 12:26:21;;;;;;;442.52;401.63;;;21.50;65.20;;;;;;4971118;28;20047;-72
2022/08/06 12:28:49;;;;;;;436.20;395.65;;;21.80;66.10;;;;;;4971270;28;20113;-72
2022/08/06 12:31:31;;;;;;;417.70;378.70;;;22.00;64.90;;;;;;4986179;28;20450;-72